Time,TemperatureF,DewpointF,PressureIn,WindDirection,WindDirectionDegrees,WindSpeedMPH,WindSpeedGustMPH,Humidity,HourlyPrecipIn,Conditions,Clouds,dailyrainin,SoftwareType,DateUTC
2013-04-19 00:02:00,73.7,56.0,29.84,ENE,74,15.0,24.0,54,0.00,,,0.00,weatherlink.com 1.10,2013-04-19 04:02:00,
2013-04-19 00:17:00,73.6,56.0,29.84,South,181,6.0,29.0,54,0.00,,,0.00,weatherlink.com 1.10,2013-04-19 04:17:00,
2013-04-19 00:32:00,73.8,55.0,29.83,East,87,16.0,28.0,53,0.00,,,0.00,weatherlink.com 1.10,2013-04-19 04:32:00,
2013-04-19 00:47:00,73.7,55.0,29.82,East,88,17.0,27.0,53,0.00,,,0.00,weatherlink.com 1.10,2013-04-19 04:47:00,
2013-04-19 01:02:00,73.8,55.0,29.82,ENE,58,13.0,30.0,53,0.00,,,0.00,weatherlink.com 1.10,2013-04-19 05:02:00,
2013-04-19 01:17:00,73.7,55.0,29.81,South,174,12.0,25.0,53,0.00,,,0.00,weatherlink.com 1.10,2013-04-19 05:17:00,
2013-04-19 01:32:00,73.7,55.0,29.78,ESE,110,20.0,25.0,53,0.00,,,0.00,weatherlink.com 1.10,2013-04-19 05:32:00,
2013-04-19 01:47:00,73.6,56.0,29.78,SSW,209,15.0,26.0,54,0.00,,,0.00,weatherlink.com 1.10,2013-04-19 05:47:00,
2013-04-19 02:02:00,73.7,56.0,29.77,ESE,122,23.0,29.0,54,0.00,,,0.00,weatherlink.com 1.10,2013-04-19 06:02:00,
2013-04-19 02:17:00,73.7,56.0,29.76,SE,136,18.0,27.0,54,0.00,,,0.00,weatherlink.com 1.10,2013-04-19 06:17:00,
2013-04-19 02:33:00,73.9,56.0,29.75,SSW,199,14.0,37.0,54,0.00,,,0.00,weatherlink.com 1.10,2013-04-19 06:33:00,
2013-04-19 02:48:00,73.7,56.0,29.75,ENE,64,19.0,33.0,55,0.00,,,0.00,weatherlink.com 1.10,2013-04-19 06:48:00,
2013-04-19 03:03:00,73.5,57.0,29.74,North,4,24.0,31.0,56,0.00,,,0.00,weatherlink.com 1.10,2013-04-19 07:03:00,
2013-04-19 03:18:00,73.3,57.0,29.71,North,353,26.0,30.0,56,0.00,,,0.00,weatherlink.com 1.10,2013-04-19 07:18:00,
2013-04-19 03:33:00,73.6,57.0,29.72,South,169,20.0,35.0,56,0.00,,,0.00,weatherlink.com 1.10,2013-04-19 07:33:00,
2013-04-19 03:48:00,73.5,57.0,29.71,SE,131,10.0,28.0,57,0.00,,,0.00,weatherlink.com 1.10,2013-04-19 07:48:00,
2013-04-19 04:03:00,73.2,57.0,29.71,SE,133,13.0,24.0,57,0.00,,,0.00,weatherlink.com 1.10,2013-04-19 08:03:00,
2013-04-19 04:17:00,73.2,57.0,29.71,SE,146,13.0,24.0,57,0.00,,,0.00,weatherlink.com 1.10,2013-04-19 08:17:00,
2013-04-19 04:33:00,73.1,57.0,29.71,South,179,3.0,21.0,58,0.00,,,0.00,weatherlink.com 1.10,2013-04-19 08:33:00,
2013-04-19 04:48:00,72.5,57.0,29.71,West,280,7.0,13.0,59,0.00,,,0.00,weatherlink.com 1.10,2013-04-19 08:48:00,
2013-04-19 05:03:00,72.1,58.0,29.71,SSW,196,7.0,21.0,62,0.00,,,0.00,weatherlink.com 1.10,2013-04-19 09:03:00,
2013-04-19 05:18:00,72.3,59.0,29.70,SE,129,6.0,27.0,63,0.00,,,0.00,weatherlink.com 1.10,2013-04-19 09:18:00,
2013-04-19 05:33:00,72.7,59.0,29.70,ESE,123,10.0,25.0,63,0.00,,,0.00,weatherlink.com 1.10,2013-04-19 09:33:00,
2013-04-19 05:48:00,72.9,59.0,29.71,WSW,244,9.0,45.0,62,0.00,,,0.00,weatherlink.com 1.10,2013-04-19 09:48:00,
2013-04-19 06:03:00,72.6,59.0,29.71,South,187,20.0,34.0,63,0.00,,,0.00,weatherlink.com 1.10,2013-04-19 10:03:00,
2013-04-19 06:18:00,72.5,59.0,29.71,NE,55,16.0,34.0,63,0.00,,,0.00,weatherlink.com 1.10,2013-04-19 10:18:00,
2013-04-19 06:33:00,70.3,60.0,29.70,SW,231,11.0,32.0,70,0.00,,,0.00,weatherlink.com 1.10,2013-04-19 10:33:00,
2013-04-19 06:48:00,67.9,60.0,29.70,East,90,12.0,34.0,77,0.02,,,0.02,weatherlink.com 1.10,2013-04-19 10:48:00,
2013-04-19 07:03:00,66.4,61.0,29.71,South,191,21.0,30.0,83,0.05,,,0.05,weatherlink.com 1.10,2013-04-19 11:03:00,
2013-04-19 07:18:00,65.0,62.0,29.76,West,271,13.0,33.0,90,0.20,,,0.20,weatherlink.com 1.10,2013-04-19 11:18:00,
2013-04-19 07:34:00,63.3,61.0,29.75,SW,214,9.0,26.0,92,0.35,,,0.35,weatherlink.com 1.10,2013-04-19 11:34:00,
2013-04-19 07:48:00,62.6,61.0,29.75,WSW,246,6.0,31.0,93,0.47,,,0.49,weatherlink.com 1.10,2013-04-19 11:48:00,
2013-04-19 08:04:00,62.6,61.0,29.75,SSE,168,7.0,17.0,95,0.56,,,0.61,weatherlink.com 1.10,2013-04-19 12:04:00,
2013-04-19 08:19:00,62.8,62.0,29.76,WSW,257,13.0,16.0,96,0.62,,,0.80,weatherlink.com 1.10,2013-04-19 12:19:00,
2013-04-19 08:33:00,62.8,62.0,29.74,East,82,13.0,17.0,96,0.52,,,0.87,weatherlink.com 1.10,2013-04-19 12:33:00,
2013-04-19 08:48:00,62.7,62.0,29.74,WSW,245,5.0,15.0,96,0.42,,,0.92,weatherlink.com 1.10,2013-04-19 12:48:00,
2013-04-19 09:03:00,62.8,62.0,29.74,South,179,9.0,19.0,96,0.44,,,1.05,weatherlink.com 1.10,2013-04-19 13:03:00,
2013-04-19 09:18:00,61.6,60.0,29.75,West,265,22.0,24.0,94,0.33,,,1.12,weatherlink.com 1.10,2013-04-19 13:18:00,
2013-04-19 09:33:00,59.9,59.0,29.77,WSW,238,6.0,14.0,95,0.31,,,1.18,weatherlink.com 1.10,2013-04-19 13:33:00,
2013-04-19 09:48:00,59.0,57.0,29.77,WNW,282,24.0,31.0,94,0.27,,,1.20,weatherlink.com 1.10,2013-04-19 13:48:00,
2013-04-19 10:03:00,57.9,56.0,29.76,WNW,295,22.0,31.0,92,0.15,,,1.20,weatherlink.com 1.10,2013-04-19 14:03:00,
2013-04-19 10:18:00,57.2,56.0,29.76,WNW,293,12.0,23.0,94,0.08,,,1.20,weatherlink.com 1.10,2013-04-19 14:18:00,
2013-04-19 10:33:00,54.2,52.0,29.79,WNW,283,7.0,28.0,93,0.03,,,1.21,weatherlink.com 1.10,2013-04-19 14:33:00,
2013-04-19 10:49:00,53.1,51.0,29.79,NW,308,17.0,26.0,93,0.01,,,1.21,weatherlink.com 1.10,2013-04-19 14:49:00,
2013-04-19 11:04:00,52.6,51.0,29.81,WNW,303,9.0,27.0,94,0.02,,,1.22,weatherlink.com 1.10,2013-04-19 15:04:00,
2013-04-19 11:19:00,51.8,50.0,29.82,NW,308,15.0,23.0,93,0.02,,,1.23,weatherlink.com 1.10,2013-04-19 15:19:00,
2013-04-19 11:35:00,51.3,49.0,29.83,WNW,295,15.0,28.0,93,0.03,,,1.24,weatherlink.com 1.10,2013-04-19 15:35:00,
2013-04-19 11:49:00,51.0,49.0,29.83,WNW,290,8.0,23.0,92,0.06,,,1.27,weatherlink.com 1.10,2013-04-19 15:49:00,
2013-04-19 12:04:00,50.4,48.0,29.85,WNW,293,14.0,22.0,92,0.05,,,1.27,weatherlink.com 1.10,2013-04-19 16:04:00,
2013-04-19 12:19:00,49.4,47.0,29.86,WNW,295,10.0,25.0,91,0.05,,,1.28,weatherlink.com 1.10,2013-04-19 16:19:00,
2013-04-19 12:34:00,48.9,46.0,29.89,West,276,12.0,21.0,89,0.04,,,1.28,weatherlink.com 1.10,2013-04-19 16:34:00,
2013-04-19 12:49:00,49.0,46.0,29.89,WNW,285,16.0,26.0,89,0.01,,,1.28,weatherlink.com 1.10,2013-04-19 16:49:00,
2013-04-19 13:04:00,49.6,47.0,29.88,West,278,8.0,20.0,89,0.01,,,1.28,weatherlink.com 1.10,2013-04-19 17:04:00,
2013-04-19 13:19:00,49.7,46.0,29.89,WNW,300,8.0,21.0,87,0.00,,,1.28,weatherlink.com 1.10,2013-04-19 17:19:00,
2013-04-19 13:34:00,49.3,45.0,29.88,WSW,245,8.0,23.0,85,0.00,,,1.28,weatherlink.com 1.10,2013-04-19 17:34:00,
2013-04-19 13:49:00,50.5,47.0,29.88,North,358,3.0,15.0,86,0.00,,,1.28,weatherlink.com 1.10,2013-04-19 17:49:00,
2013-04-19 14:04:00,49.7,45.0,29.90,WNW,294,7.0,23.0,83,0.00,,,1.28,weatherlink.com 1.10,2013-04-19 18:04:00,
2013-04-19 14:19:00,51.1,47.0,29.90,SSE,149,1.0,22.0,86,0.00,,,1.28,weatherlink.com 1.10,2013-04-19 18:19:00,
2013-04-19 14:34:00,50.6,44.0,29.91,North,350,2.0,18.0,79,0.00,,,1.28,weatherlink.com 1.10,2013-04-19 18:34:00,
2013-04-19 14:49:00,50.6,46.0,29.91,West,261,1.0,21.0,83,0.00,,,1.28,weatherlink.com 1.10,2013-04-19 18:49:00,
2013-04-19 15:04:00,51.1,46.0,29.92,East,92,3.0,20.0,82,0.00,,,1.28,weatherlink.com 1.10,2013-04-19 19:04:00,
2013-04-19 15:19:00,51.6,46.0,29.92,NW,323,2.0,16.0,81,0.00,,,1.28,weatherlink.com 1.10,2013-04-19 19:19:00,
2013-04-19 15:34:00,50.2,43.0,29.91,WNW,288,16.0,21.0,75,0.00,,,1.28,weatherlink.com 1.10,2013-04-19 19:34:00,
2013-04-19 15:49:00,49.6,41.0,29.92,WNW,295,20.0,22.0,73,0.00,,,1.28,weatherlink.com 1.10,2013-04-19 19:49:00,
2013-04-19 16:04:00,50.7,43.0,29.92,NNW,335,5.0,25.0,74,0.00,,,1.28,weatherlink.com 1.10,2013-04-19 20:04:00,
2013-04-19 16:19:00,51.6,41.0,29.92,SSE,148,5.0,26.0,68,0.00,,,1.28,weatherlink.com 1.10,2013-04-19 20:19:00,
2013-04-19 16:34:00,52.2,43.0,29.94,WNW,290,18.0,21.0,71,0.00,,,1.28,weatherlink.com 1.10,2013-04-19 20:34:00,
2013-04-19 16:49:00,51.1,42.0,29.93,WNW,282,16.0,24.0,71,0.00,,,1.28,weatherlink.com 1.10,2013-04-19 20:49:00,
2013-04-19 17:04:00,51.5,39.0,29.94,West,262,14.0,19.0,63,0.00,,,1.28,weatherlink.com 1.10,2013-04-19 21:04:00,
2013-04-19 17:19:00,50.0,40.0,29.94,WNW,293,2.0,20.0,68,0.00,,,1.28,weatherlink.com 1.10,2013-04-19 21:19:00,
2013-04-19 17:34:00,51.6,39.0,29.95,West,263,12.0,18.0,63,0.00,,,1.28,weatherlink.com 1.10,2013-04-19 21:34:00,
2013-04-19 17:49:00,51.1,38.0,29.95,WNW,282,14.0,16.0,61,0.00,,,1.28,weatherlink.com 1.10,2013-04-19 21:49:00,
2013-04-19 18:04:00,50.9,39.0,29.95,North,357,4.0,19.0,64,0.00,,,1.28,weatherlink.com 1.10,2013-04-19 22:04:00,
2013-04-19 18:19:00,50.3,38.0,29.95,WNW,297,5.0,18.0,63,0.00,,,1.28,weatherlink.com 1.10,2013-04-19 22:19:00,
2013-04-19 18:34:00,51.2,39.0,29.95,WNW,294,12.0,15.0,64,0.00,,,1.28,weatherlink.com 1.10,2013-04-19 22:34:00,
2013-04-19 18:49:00,50.6,37.0,29.96,West,276,6.0,13.0,61,0.00,,,1.28,weatherlink.com 1.10,2013-04-19 22:49:00,
2013-04-19 19:04:00,50.3,39.0,29.96,NW,311,3.0,15.0,65,0.00,,,1.28,weatherlink.com 1.10,2013-04-19 23:04:00,
2013-04-19 19:19:00,50.1,37.0,29.97,NE,41,2.0,16.0,62,0.00,,,1.28,weatherlink.com 1.10,2013-04-19 23:19:00,
2013-04-19 19:34:00,50.3,36.0,29.97,WNW,293,13.0,18.0,59,0.00,,,1.28,weatherlink.com 1.10,2013-04-19 23:34:00,
2013-04-19 19:49:00,49.6,36.0,29.99,WNW,295,7.0,19.0,60,0.00,,,1.28,weatherlink.com 1.10,2013-04-19 23:49:00,
2013-04-19 20:05:00,48.8,36.0,29.99,WNW,289,11.0,21.0,61,0.00,,,1.28,weatherlink.com 1.10,2013-04-20 00:05:00,
2013-04-19 20:20:00,48.4,36.0,30.01,NW,310,5.0,14.0,62,0.00,,,1.28,weatherlink.com 1.10,2013-04-20 00:20:00,
2013-04-19 20:35:00,48.1,36.0,30.02,WNW,291,8.0,12.0,63,0.00,,,1.28,weatherlink.com 1.10,2013-04-20 00:35:00,
2013-04-19 20:50:00,47.9,36.0,30.03,West,266,10.0,13.0,63,0.00,,,1.28,weatherlink.com 1.10,2013-04-20 00:50:00,
2013-04-19 21:05:00,47.6,35.0,30.03,WNW,293,6.0,15.0,63,0.00,,,1.28,weatherlink.com 1.10,2013-04-20 01:05:00,
2013-04-19 21:20:00,47.6,35.0,30.05,WNW,284,7.0,16.0,62,0.00,,,1.28,weatherlink.com 1.10,2013-04-20 01:20:00,
2013-04-19 21:35:00,47.5,35.0,30.06,NW,304,7.0,18.0,63,0.00,,,1.28,weatherlink.com 1.10,2013-04-20 01:35:00,
2013-04-19 21:50:00,47.5,35.0,30.06,NNW,345,1.0,13.0,62,0.00,,,1.28,weatherlink.com 1.10,2013-04-20 01:50:00,
2013-04-19 22:05:00,47.3,35.0,30.07,NW,307,6.0,13.0,63,0.00,,,1.28,weatherlink.com 1.10,2013-04-20 02:05:00,
2013-04-19 22:20:00,47.1,35.0,30.08,WNW,295,4.0,10.0,64,0.00,,,1.28,weatherlink.com 1.10,2013-04-20 02:20:00,
2013-04-19 22:35:00,47.0,36.0,30.10,SE,126,2.0,9.0,66,0.00,,,1.28,weatherlink.com 1.10,2013-04-20 02:35:00,
2013-04-19 22:50:00,46.9,33.0,30.11,ESE,108,2.0,8.0,60,0.00,,,1.28,weatherlink.com 1.10,2013-04-20 02:50:00,
2013-04-19 23:05:00,46.6,32.0,30.12,West,273,4.0,15.0,58,0.00,,,1.28,weatherlink.com 1.10,2013-04-20 03:05:00,
2013-04-19 23:20:00,46.5,33.0,30.12,WNW,300,8.0,13.0,59,0.00,,,1.28,weatherlink.com 1.10,2013-04-20 03:20:00,
2013-04-19 23:35:00,46.2,33.0,30.13,WNW,297,9.0,9.0,61,0.00,,,1.28,weatherlink.com 1.10,2013-04-20 03:35:00,
2013-04-19 23:50:00,45.8,34.0,30.13,WNW,284,7.0,10.0,63,0.00,,,1.28,weatherlink.com 1.10,2013-04-20 03:50:00,